createdAt,value
2018-05-04T00:00:16.756Z,35.38
2018-05-04T00:02:45.109Z,35.32
2018-05-04T00:05:13.470Z,35.51
2018-05-04T00:07:41.862Z,36.44
2018-05-04T00:10:10.250Z,36.44
2018-05-04T00:12:38.607Z,35.85
2018-05-04T00:15:07.006Z,36.11
2018-05-04T00:17:35.371Z,36.20
2018-05-04T00:20:03.732Z,36.58
2018-05-04T00:22:32.115Z,36.38
2018-05-04T00:25:00.470Z,36.47
2018-05-04T00:27:29.214Z,36.63
2018-05-04T00:29:57.774Z,36.24
2018-05-04T00:32:26.178Z,36.48
2018-05-04T00:34:54.544Z,36.15
2018-05-04T00:37:22.920Z,36.35
2018-05-04T00:39:51.303Z,36.42
2018-05-04T00:42:19.678Z,36.90
2018-05-04T00:44:48.048Z,36.73
2018-05-04T00:47:16.411Z,37.28
2018-05-04T00:49:44.787Z,37.08
2018-05-04T00:52:13.215Z,36.90
2018-05-04T00:54:41.569Z,36.92
2018-05-04T00:57:09.924Z,37.29
2018-05-04T00:59:38.340Z,37.47
2018-05-04T01:02:07.442Z,37.85
2018-05-04T01:04:35.814Z,37.74
2018-05-04T01:07:04.187Z,38.10
2018-05-04T01:09:32.666Z,37.96
2018-05-04T01:12:01.019Z,38.26
2018-05-04T01:14:29.432Z,37.91
2018-05-04T01:16:57.802Z,37.86
2018-05-04T01:19:26.182Z,38.50
2018-05-04T01:21:54.571Z,38.28
2018-05-04T01:24:22.950Z,38.26
2018-05-04T01:26:51.328Z,38.31
2018-05-04T01:29:19.710Z,38.52
2018-05-04T01:31:48.081Z,38.73
2018-05-04T01:34:16.443Z,38.69
2018-05-04T01:36:44.838Z,38.61
2018-05-04T01:39:13.206Z,38.61
2018-05-04T01:41:41.610Z,38.88
2018-05-04T01:44:09.993Z,39.17
2018-05-04T01:46:38.354Z,39.38
2018-05-04T01:49:06.797Z,39.20
2018-05-04T01:51:35.130Z,39.62
2018-05-04T01:54:03.498Z,39.67
2018-05-04T01:56:31.873Z,39.46
2018-05-04T01:59:00.251Z,39.51
2018-05-04T02:01:28.607Z,39.80
2018-05-04T02:03:56.965Z,40.02
2018-05-04T02:06:25.414Z,40.17
2018-05-04T02:08:53.774Z,39.86
2018-05-04T02:11:22.252Z,40.09
2018-05-04T02:13:50.677Z,39.81
2018-05-04T02:16:19.418Z,40.04
2018-05-04T02:18:48.393Z,40.47
2018-05-04T02:21:16.808Z,40.16
2018-05-04T02:23:45.184Z,40.42
2018-05-04T02:26:13.534Z,40.53
2018-05-04T02:28:41.921Z,40.78
2018-05-04T02:31:10.280Z,40.49
2018-05-04T02:33:38.651Z,40.79
2018-05-04T02:36:07.028Z,41.22
2018-05-04T02:38:35.390Z,41.16
2018-05-04T02:41:04.170Z,41.29
2018-05-04T02:43:32.616Z,40.74
2018-05-04T02:46:00.970Z,40.98
2018-05-04T02:48:29.330Z,41.54
2018-05-04T02:50:57.714Z,41.12
2018-05-04T02:53:26.091Z,41.16
2018-05-04T02:55:54.503Z,41.09
2018-05-04T02:58:22.879Z,41.29
2018-05-04T03:00:51.236Z,41.67
2018-05-04T03:03:19.597Z,41.97
2018-05-04T03:05:47.999Z,41.76
2018-05-04T03:08:16.390Z,41.49
2018-05-04T03:10:44.782Z,41.32
2018-05-04T03:13:13.201Z,41.40
2018-05-04T03:15:41.962Z,41.27
2018-05-04T03:18:10.332Z,41.29
2018-05-04T03:20:38.716Z,41.50
2018-05-04T03:23:07.094Z,41.60
2018-05-04T03:25:35.455Z,41.82
2018-05-04T03:28:03.827Z,42.11
2018-05-04T03:30:33.813Z,42.12
2018-05-04T03:33:02.170Z,42.38
2018-05-04T03:35:30.950Z,42.40
2018-05-04T03:37:59.323Z,42.46
2018-05-04T03:40:27.686Z,42.71
2018-05-04T03:42:56.118Z,42.56
2018-05-04T03:45:24.438Z,42.64
2018-05-04T03:47:52.806Z,42.53
2018-05-04T03:50:21.630Z,42.60
2018-05-04T03:52:50.849Z,42.54
2018-05-04T03:55:19.666Z,42.21
2018-05-04T03:58:05.890Z,42.32
2018-05-04T04:00:51.945Z,42.77
2018-05-04T04:03:38.292Z,42.93
2018-05-04T04:06:06.707Z,42.45
2018-05-04T04:08:35.566Z,41.84
2018-05-04T04:11:03.941Z,41.43
2018-05-04T04:13:32.302Z,41.16
2018-05-04T04:16:00.667Z,41.63
2018-05-04T04:18:29.095Z,41.33
2018-05-04T04:20:57.558Z,41.05
2018-05-04T04:23:25.935Z,40.89
2018-05-04T04:25:54.315Z,40.06
2018-05-04T04:28:22.693Z,37.40
2018-05-04T04:30:51.199Z,35.07
2018-05-04T04:33:19.547Z,32.39
2018-05-04T04:35:47.922Z,31.08
2018-05-04T04:38:16.301Z,29.05
2018-05-04T04:40:44.681Z,27.85
2018-05-04T04:43:13.086Z,26.49
2018-05-04T04:45:41.515Z,26.00
2018-05-04T04:48:09.893Z,26.09
2018-05-04T04:50:38.265Z,25.42
2018-05-04T04:53:06.627Z,24.91
2018-05-04T04:55:35.440Z,23.64
2018-05-04T04:58:03.799Z,22.99
2018-05-04T05:00:32.213Z,22.33
2018-05-04T05:03:00.597Z,20.97
2018-05-04T05:05:28.982Z,20.62
2018-05-04T05:07:57.326Z,20.59
2018-05-04T05:10:25.747Z,21.09
2018-05-04T05:12:54.127Z,21.10
2018-05-04T05:15:22.494Z,21.70
2018-05-04T05:17:51.397Z,21.54
2018-05-04T05:20:19.846Z,21.66
2018-05-04T05:22:48.218Z,21.31
2018-05-04T05:25:16.607Z,22.19
2018-05-04T05:27:44.985Z,21.69
2018-05-04T05:30:13.370Z,21.61
2018-05-04T05:32:41.785Z,22.10
2018-05-04T05:35:10.238Z,20.37
2018-05-04T05:37:38.623Z,19.15
2018-05-04T05:40:07.002Z,18.65
2018-05-04T05:42:35.350Z,17.54
2018-05-04T05:45:03.727Z,16.74
2018-05-04T05:47:32.126Z,16.82
2018-05-04T05:50:00.502Z,16.24
2018-05-04T05:52:28.969Z,15.09
2018-05-04T05:54:57.365Z,14.40
2018-05-04T05:57:25.742Z,14.19
2018-05-04T05:59:54.121Z,13.87
2018-05-04T06:02:22.519Z,14.36
2018-05-04T06:04:50.898Z,14.06
2018-05-04T06:07:19.466Z,14.34
2018-05-04T06:09:47.849Z,14.88
2018-05-04T06:12:16.209Z,14.96
2018-05-04T06:14:44.553Z,14.51
2018-05-04T06:17:13.358Z,14.46
2018-05-04T06:19:41.789Z,14.06
2018-05-04T06:22:10.164Z,14.07
2018-05-04T06:24:38.535Z,13.28
2018-05-04T06:27:06.900Z,13.17
2018-05-04T06:29:35.409Z,12.62
2018-05-04T06:32:03.789Z,13.40
2018-05-04T06:34:32.187Z,12.62
2018-05-04T06:37:00.547Z,12.37
2018-05-04T06:39:28.982Z,12.06
2018-05-04T06:41:57.361Z,12.12
2018-05-04T06:44:25.723Z,12.16
2018-05-04T06:46:54.593Z,12.32
2018-05-04T06:49:23.003Z,13.05
2018-05-04T06:51:51.362Z,12.47
2018-05-04T06:54:19.811Z,11.49
2018-05-04T06:56:48.251Z,11.03
2018-05-04T06:59:16.635Z,10.87
2018-05-04T07:01:45.025Z,11.18
2018-05-04T07:04:13.393Z,10.62
2018-05-04T07:06:41.803Z,10.93
2018-05-04T07:09:10.187Z,10.76
2018-05-04T07:11:38.767Z,10.55
2018-05-04T07:14:07.131Z,9.95
2018-05-04T07:16:35.518Z,10.12
2018-05-04T07:19:03.907Z,9.47
2018-05-04T07:21:32.281Z,9.57
2018-05-04T07:24:00.755Z,9.01
2018-05-04T07:26:29.103Z,8.63
2018-05-04T07:28:57.463Z,8.81
2018-05-04T07:31:26.310Z,8.55
2018-05-04T07:33:54.677Z,9.20
2018-05-04T07:36:23.031Z,9.36
2018-05-04T07:38:51.742Z,7.59
2018-05-04T07:41:20.229Z,7.99
2018-05-04T07:43:48.601Z,7.99
2018-05-04T07:46:16.995Z,7.30
2018-05-04T07:48:45.393Z,7.25
2018-05-04T07:51:13.734Z,7.00
2018-05-04T07:53:42.123Z,7.36
2018-05-04T07:56:10.490Z,8.76
2018-05-04T07:58:38.848Z,9.35
2018-05-04T08:01:08.354Z,8.22
2018-05-04T08:03:36.767Z,8.25
2018-05-04T08:06:05.131Z,8.17
2018-05-04T08:08:33.618Z,7.85
2018-05-04T08:11:02.331Z,7.03
2018-05-04T08:13:31.097Z,7.23
2018-05-04T08:15:59.478Z,6.49
2018-05-04T08:18:27.832Z,6.82
2018-05-04T08:20:56.211Z,7.89
2018-05-04T08:23:24.610Z,7.72
2018-05-04T08:25:52.969Z,7.32
2018-05-04T08:28:21.322Z,7.84
2018-05-04T08:30:50.140Z,7.01
2018-05-04T08:33:18.501Z,6.87
2018-05-04T08:35:46.940Z,6.65
2018-05-04T08:38:15.366Z,6.24
2018-05-04T08:40:44.180Z,6.82
2018-05-04T08:43:12.600Z,6.65
2018-05-04T08:45:41.374Z,6.31
2018-05-04T08:48:09.731Z,6.99
2018-05-04T08:50:38.091Z,7.11
2018-05-04T08:53:06.476Z,6.68
2018-05-04T08:55:34.852Z,6.77
2018-05-04T08:58:03.434Z,6.49
2018-05-04T09:00:31.848Z,6.18
2018-05-04T09:03:00.191Z,6.09
2018-05-04T09:05:28.576Z,5.90
2018-05-04T09:07:56.954Z,5.13
2018-05-04T09:10:25.313Z,4.95
2018-05-04T09:12:53.664Z,4.60
2018-05-04T09:15:22.430Z,5.72
2018-05-04T09:17:50.794Z,5.91
2018-05-04T09:20:19.152Z,6.00
2018-05-04T09:22:47.546Z,5.69
2018-05-04T09:25:16.012Z,5.90
2018-05-04T09:27:44.290Z,5.53
2018-05-04T09:30:12.691Z,6.00
2018-05-04T09:32:41.031Z,6.14
2018-05-04T09:35:09.439Z,6.23
2018-05-04T09:37:37.809Z,6.04
2018-05-04T09:40:06.198Z,6.65
2018-05-04T09:42:34.565Z,6.13
2018-05-04T09:45:03.009Z,6.33
2018-05-04T09:47:31.759Z,6.24
2018-05-04T09:50:00.117Z,6.67
2018-05-04T09:52:28.493Z,6.59
2018-05-04T09:54:57.540Z,6.19
2018-05-04T09:57:26.290Z,5.80
2018-05-04T09:59:55.205Z,6.07
2018-05-04T10:02:23.648Z,6.25
2018-05-04T10:04:52.048Z,6.02
2018-05-04T10:07:20.441Z,6.38
2018-05-04T10:09:48.906Z,6.60
2018-05-04T10:12:17.255Z,6.76
2018-05-04T10:14:45.633Z,6.80
2018-05-04T10:17:14.004Z,6.72
2018-05-04T10:19:42.372Z,6.51
2018-05-04T10:22:10.760Z,6.93
2018-05-04T10:24:39.111Z,7.74
2018-05-04T10:27:07.861Z,8.50
2018-05-04T10:29:36.345Z,7.85
2018-05-04T10:32:04.719Z,8.22
2018-05-04T10:34:33.113Z,7.64
2018-05-04T10:37:01.502Z,9.31
2018-05-04T10:39:29.857Z,9.49
2018-05-04T10:41:58.233Z,9.87
2018-05-04T10:44:26.604Z,10.25
2018-05-04T10:46:54.992Z,10.18
2018-05-04T10:49:23.353Z,9.69
2018-05-04T10:51:51.764Z,10.00
2018-05-04T10:54:20.132Z,10.91
2018-05-04T10:56:48.486Z,10.54
2018-05-04T10:59:16.859Z,10.11
2018-05-04T11:01:45.233Z,9.68
2018-05-04T11:04:13.590Z,9.59
2018-05-04T11:06:42.359Z,9.54
2018-05-04T11:09:10.734Z,10.05
2018-05-04T11:11:39.114Z,10.68
2018-05-04T11:14:07.975Z,11.79
2018-05-04T11:16:36.351Z,12.40
2018-05-04T11:19:04.746Z,13.91
2018-05-04T11:21:33.225Z,14.20
2018-05-04T11:24:02.049Z,14.64
2018-05-04T11:26:30.904Z,15.24
2018-05-04T11:28:59.376Z,15.29
2018-05-04T11:31:27.735Z,15.41
2018-05-04T11:33:56.243Z,15.70
2018-05-04T11:36:24.675Z,16.19
2018-05-04T11:38:53.132Z,16.45
2018-05-04T11:41:21.470Z,16.93
2018-05-04T11:43:49.855Z,16.87
2018-05-04T11:46:18.248Z,16.54
2018-05-04T11:48:46.598Z,16.54
2018-05-04T11:51:14.982Z,18.18
2018-05-04T11:53:43.352Z,19.13
2018-05-04T11:56:11.723Z,19.17
2018-05-04T11:58:40.116Z,18.81
2018-05-04T12:01:08.475Z,18.84
2018-05-04T12:03:36.850Z,19.06
2018-05-04T12:06:05.288Z,18.50
2018-05-04T12:08:33.770Z,18.33
2018-05-04T12:11:02.136Z,18.40
2018-05-04T12:13:30.607Z,18.58
2018-05-04T12:15:58.958Z,18.48
2018-05-04T12:18:27.327Z,18.26
2018-05-04T12:20:55.759Z,18.15
2018-05-04T12:23:24.170Z,18.15
2018-05-04T12:25:52.937Z,18.14
2018-05-04T12:28:21.891Z,19.20
2018-05-04T12:30:50.249Z,19.17
2018-05-04T12:33:18.610Z,18.93
2018-05-04T12:35:47.424Z,18.88
2018-05-04T12:38:15.782Z,17.79
2018-05-04T12:40:44.685Z,18.33
2018-05-04T12:43:13.142Z,18.17
2018-05-04T12:45:41.914Z,18.08
2018-05-04T12:48:10.380Z,19.15
2018-05-04T12:50:38.766Z,18.94
2018-05-04T12:53:07.239Z,18.64
2018-05-04T12:55:35.605Z,18.64
2018-05-04T12:58:03.970Z,18.63
2018-05-04T13:00:32.382Z,18.12
2018-05-04T13:03:00.737Z,17.89
2018-05-04T13:05:29.152Z,17.31
2018-05-04T13:07:57.526Z,17.27
2018-05-04T13:10:25.985Z,17.63
2018-05-04T13:12:54.367Z,17.92
2018-05-04T13:15:22.742Z,17.75
2018-05-04T13:17:51.103Z,18.31
2018-05-04T13:20:19.485Z,19.05
2018-05-04T13:22:48.397Z,18.47
2018-05-04T13:25:16.867Z,18.08
2018-05-04T13:27:45.502Z,18.28
2018-05-04T13:30:14.249Z,17.96
2018-05-04T13:32:43.432Z,17.86
2018-05-04T13:35:12.071Z,17.61
2018-05-04T13:37:40.925Z,17.87
2018-05-04T13:40:09.379Z,18.43
2018-05-04T13:42:38.010Z,18.79
2018-05-04T13:45:06.381Z,19.07
2018-05-04T13:47:34.787Z,20.25
2018-05-04T13:50:03.553Z,19.96
2018-05-04T13:52:32.317Z,19.62
2018-05-04T13:55:00.694Z,19.17
2018-05-04T13:57:29.074Z,18.08
2018-05-04T13:59:57.607Z,18.13
2018-05-04T14:02:25.971Z,18.02
2018-05-04T14:04:54.752Z,18.34
2018-05-04T14:07:23.844Z,19.02
2018-05-04T14:09:52.200Z,18.37
2018-05-04T14:12:20.603Z,17.86
2018-05-04T14:14:49.054Z,18.36
2018-05-04T14:17:17.406Z,18.16
2018-05-04T14:19:45.830Z,17.39
2018-05-04T14:22:14.198Z,17.70
2018-05-04T14:24:42.795Z,17.26
2018-05-04T14:27:11.223Z,17.37
2018-05-04T14:29:39.582Z,17.20
2018-05-04T14:32:09.247Z,18.09
2018-05-04T14:34:37.621Z,17.55
2018-05-04T14:37:05.973Z,18.41
2018-05-04T14:39:34.382Z,18.91
2018-05-04T14:42:02.858Z,18.85
2018-05-04T14:44:31.222Z,18.80
2018-05-04T14:46:59.590Z,18.20
2018-05-04T14:49:28.005Z,17.83
2018-05-04T14:51:56.421Z,17.32
2018-05-04T14:54:25.805Z,17.10
2018-05-04T14:56:54.171Z,17.23
2018-05-04T14:59:22.557Z,17.39
2018-05-04T15:01:50.924Z,17.60
2018-05-04T15:04:19.297Z,17.54
2018-05-04T15:06:47.646Z,18.28
2018-05-04T15:09:16.044Z,18.32
2018-05-04T15:11:44.410Z,18.97
2018-05-04T15:14:12.768Z,18.86
2018-05-04T15:16:41.234Z,19.08
2018-05-04T15:19:09.575Z,19.47
2018-05-04T15:21:37.930Z,19.91
2018-05-04T15:24:06.292Z,19.68
2018-05-04T15:26:34.668Z,19.31
2018-05-04T15:29:03.025Z,20.24
2018-05-04T15:31:31.851Z,20.28
2018-05-04T15:34:00.200Z,20.11
2018-05-04T15:36:28.953Z,20.82
2018-05-04T15:38:57.331Z,20.68
2018-05-04T15:41:25.793Z,20.01
2018-05-04T15:43:54.160Z,19.66
2018-05-04T15:46:22.517Z,19.58
2018-05-04T15:48:56.376Z,20.12
2018-05-04T15:54:39.092Z,19.39
2018-05-04T15:57:07.811Z,19.23
2018-05-04T15:59:36.195Z,19.25
2018-05-04T16:02:04.973Z,19.85
2018-05-04T16:04:33.424Z,19.88
2018-05-04T16:07:01.836Z,20.17
2018-05-04T16:09:30.227Z,20.76
2018-05-04T16:11:58.985Z,20.26
2018-05-04T16:14:27.341Z,19.99
2018-05-04T16:16:55.735Z,20.02
2018-05-04T16:19:24.090Z,19.68
2018-05-04T16:21:52.457Z,19.94
2018-05-04T16:24:20.822Z,19.52
2018-05-04T16:26:49.588Z,20.12
2018-05-04T16:29:17.957Z,21.62
2018-05-04T16:31:46.363Z,21.79
2018-05-04T16:34:15.111Z,21.60
2018-05-04T16:36:43.593Z,21.67
2018-05-04T16:39:11.981Z,22.11
2018-05-04T16:41:40.417Z,21.17
2018-05-04T16:44:08.749Z,21.10
2018-05-04T16:49:46.091Z,22.09
2018-05-04T16:52:14.538Z,22.13
2018-05-04T16:54:42.913Z,21.72
2018-05-04T16:57:11.567Z,21.50
2018-05-04T16:59:39.947Z,21.88
2018-05-04T17:02:09.107Z,22.55
2018-05-04T17:04:37.874Z,22.73
2018-05-04T17:07:06.638Z,22.22
2018-05-04T17:09:34.997Z,22.98
2018-05-04T17:12:03.367Z,22.80
2018-05-04T17:14:31.782Z,23.14
2018-05-04T17:17:00.151Z,23.52
2018-05-04T17:19:28.543Z,23.64
2018-05-04T17:21:56.958Z,23.33
2018-05-04T17:24:25.703Z,23.26
2018-05-04T17:26:54.060Z,23.05
2018-05-04T17:29:22.456Z,23.32
2018-05-04T17:31:50.820Z,23.77
2018-05-04T17:34:19.338Z,23.91
2018-05-04T17:36:47.727Z,23.96
2018-05-04T17:39:16.089Z,23.59
2018-05-04T17:41:44.439Z,23.45
2018-05-04T17:44:12.823Z,22.96
2018-05-04T17:46:41.258Z,22.76
2018-05-04T17:49:10.008Z,23.07
2018-05-04T17:51:38.387Z,22.83
2018-05-04T17:54:06.767Z,23.14
2018-05-04T17:56:35.214Z,23.41
2018-05-04T17:59:03.585Z,24.12
2018-05-04T18:01:31.952Z,23.51
2018-05-04T18:04:00.323Z,23.33
2018-05-04T18:06:28.743Z,23.43
2018-05-04T18:08:57.129Z,23.92
2018-05-04T18:11:25.503Z,24.32
2018-05-04T18:13:53.885Z,24.28
2018-05-04T18:16:22.234Z,24.82
2018-05-04T18:18:50.604Z,25.02
2018-05-04T18:21:18.975Z,24.63
2018-05-04T18:23:47.362Z,25.18
2018-05-04T18:28:50.829Z,25.58
2018-05-04T18:31:19.206Z,25.40
2018-05-04T18:33:47.570Z,25.93
2018-05-04T18:36:15.942Z,25.98
2018-05-04T18:38:44.314Z,25.88
2018-05-04T18:41:12.663Z,26.51
2018-05-04T18:43:41.049Z,26.47
2018-05-04T18:46:09.422Z,26.15
2018-05-04T18:48:37.856Z,26.99
2018-05-04T18:51:06.331Z,27.33
2018-05-04T18:53:34.795Z,27.08
2018-05-04T18:56:03.167Z,27.27
2018-05-04T18:58:32.143Z,27.66
2018-05-04T19:01:00.508Z,27.96
2018-05-04T19:03:29.280Z,28.51
2018-05-04T19:05:58.057Z,28.78
2018-05-04T19:08:26.438Z,28.79
2018-05-04T19:10:54.810Z,27.90
2018-05-04T19:13:23.182Z,27.87
2018-05-04T19:15:51.540Z,29.02
2018-05-04T19:18:19.928Z,29.08
2018-05-04T19:20:48.309Z,29.81
2018-05-04T19:23:16.667Z,30.32
2018-05-04T19:25:45.026Z,30.83
2018-05-04T19:28:13.455Z,31.01
2018-05-04T19:30:41.830Z,32.96
2018-05-04T19:33:10.212Z,32.81
2018-05-04T19:35:38.619Z,34.16
2018-05-04T19:38:07.426Z,35.06
2018-05-04T19:40:35.787Z,35.90
2018-05-04T19:43:04.271Z,35.92
2018-05-04T19:45:33.120Z,36.06
2018-05-04T19:48:01.492Z,37.44
2018-05-04T19:50:29.894Z,37.26
2018-05-04T19:52:58.243Z,35.89
2018-05-04T19:55:26.634Z,36.17
2018-05-04T19:57:55.054Z,36.06
2018-05-04T20:00:23.801Z,37.85
2018-05-04T20:02:52.183Z,38.02
2018-05-04T20:05:20.575Z,37.67
2018-05-04T20:07:48.945Z,38.47
2018-05-04T20:10:17.341Z,39.77
2018-05-04T20:12:45.709Z,39.62
2018-05-04T20:15:14.105Z,39.86
2018-05-04T20:20:17.139Z,39.42
2018-05-04T20:22:45.519Z,40.23
2018-05-04T20:25:13.941Z,40.43
2018-05-04T20:27:42.316Z,40.44
2018-05-04T20:30:10.720Z,41.13
2018-05-04T20:32:39.179Z,41.18
2018-05-04T20:35:07.546Z,41.89
2018-05-04T20:37:35.915Z,41.32
2018-05-04T20:40:04.298Z,41.89
2018-05-04T20:42:32.680Z,41.20
2018-05-04T20:45:01.070Z,40.17
2018-05-04T20:47:29.447Z,40.51
2018-05-04T20:49:57.836Z,40.77
2018-05-04T20:52:26.518Z,40.40
2018-05-04T20:54:55.032Z,39.92
2018-05-04T20:57:23.579Z,40.98
2018-05-04T20:59:52.116Z,41.78
2018-05-04T21:02:20.861Z,40.97
2018-05-04T21:04:49.297Z,41.04
2018-05-04T21:07:17.685Z,40.68
2018-05-04T21:09:46.054Z,41.45
2018-05-04T21:12:14.461Z,41.16
2018-05-04T21:14:42.916Z,41.00
2018-05-04T21:17:11.294Z,40.68
2018-05-04T21:19:39.763Z,41.07
2018-05-04T21:22:08.706Z,40.48
2018-05-04T21:24:37.062Z,40.38
2018-05-04T21:27:05.478Z,40.47
2018-05-04T21:29:33.830Z,40.04
2018-05-04T21:32:02.206Z,39.66
2018-05-04T21:34:30.593Z,40.69
2018-05-04T21:36:58.952Z,40.50
2018-05-04T21:39:27.357Z,40.38
2018-05-04T21:41:55.733Z,40.77
2018-05-04T21:44:24.330Z,40.55
2018-05-04T21:46:52.706Z,40.76
2018-05-04T21:49:21.092Z,40.91
2018-05-04T21:51:49.547Z,40.83
2018-05-04T21:54:17.865Z,40.40
2018-05-04T21:56:46.307Z,41.12
2018-05-04T21:59:14.735Z,40.86
2018-05-04T22:01:43.071Z,41.09
2018-05-04T22:04:11.473Z,41.62
2018-05-04T22:06:39.941Z,42.49
2018-05-04T22:09:08.308Z,42.93
2018-05-04T22:11:36.759Z,42.73
2018-05-04T22:14:05.163Z,42.48
2018-05-04T22:16:33.770Z,42.90
2018-05-04T22:19:02.182Z,42.36
2018-05-04T22:21:30.995Z,42.38
2018-05-04T22:23:59.371Z,42.64
2018-05-04T22:26:27.847Z,42.21
2018-05-04T22:28:56.158Z,42.58
2018-05-04T22:31:24.531Z,42.08
2018-05-04T22:33:52.942Z,42.52
2018-05-04T22:36:21.286Z,42.11
2018-05-04T22:38:49.670Z,41.20
2018-05-04T22:41:18.042Z,41.79
2018-05-04T22:43:46.403Z,41.58
2018-05-04T22:46:14.772Z,42.12
2018-05-04T22:48:43.218Z,42.34
2018-05-04T22:51:11.594Z,42.83
2018-05-04T22:53:39.951Z,42.38
2018-05-04T22:56:08.328Z,42.19
2018-05-04T22:58:36.686Z,41.86
2018-05-04T23:01:05.055Z,41.81
2018-05-04T23:03:33.426Z,41.31
2018-05-04T23:06:01.774Z,41.13
2018-05-04T23:08:31.033Z,41.66
2018-05-04T23:10:59.453Z,40.91
2018-05-04T23:13:28.066Z,41.59
2018-05-04T23:15:56.478Z,41.89
2018-05-04T23:18:24.856Z,41.95
2018-05-04T23:20:53.265Z,41.82
2018-05-04T23:23:22.303Z,42.25
2018-05-04T23:25:50.671Z,42.88
2018-05-04T23:28:19.518Z,41.88
2018-05-04T23:30:47.883Z,42.13
2018-05-04T23:33:16.285Z,41.62
2018-05-04T23:35:44.641Z,42.07
2018-05-04T23:38:12.990Z,41.51
2018-05-04T23:40:41.385Z,41.43
2018-05-04T23:43:09.781Z,41.34
2018-05-04T23:45:38.134Z,41.37
2018-05-04T23:48:06.561Z,41.82
2018-05-04T23:50:35.008Z,42.26
2018-05-04T23:53:03.481Z,42.43
2018-05-04T23:55:31.887Z,42.28
2018-05-04T23:58:00.236Z,42.77
